Dati Storici

Data ora Umidita' aria (%) Temperatura aria (°C) Rad globale (W/m²) Gonioanemometro (°) Tacoanemometro (m/s) Pioggia (mm)
12-10-2012 12:00 75.5 % 16.634 260.924 288.285 1.502 0
12-10-2012 11:50 77.1 % 16.357 238.912 37.217 1.168 0
12-10-2012 11:40 77.5 % 16.278 259.013 330.131 1.456 0
12-10-2012 11:30 79 % 16.017 230.66 348.804 0.719 0
12-10-2012 11:20 79.2 % 15.568 175.558 354.799 1.179 0
12-10-2012 11:10 79 % 15.303 155.813 30.094 1.542 0
12-10-2012 11:00 79.2 % 15.325 150.883 342.439 1.237 0
12-10-2012 10:50 79.2 % 15.181 127.516 2.551 1.949 0
12-10-2012 10:40 80.1 % 15.028 105.793 1.074 2.242 0
12-10-2012 10:30 80.4 % 14.828 105.956 24.897 1.26 0
12-10-2012 10:20 81.1 % 14.768 113.929 17.946 2.132 0
12-10-2012 10:10 81 % 14.684 100.962 6.026 1.153 0
12-10-2012 10:00 81.6 % 14.654 97.192 333.308 1.191 0
12-10-2012 09:50 81.1 % 14.464 109.568 29.917 2.182 0
12-10-2012 09:40 82.1 % 14.335 150.296 12.686 1.476 0
12-10-2012 09:30 82.1 % 14.041 136.085 28.007 1.87 0
12-10-2012 09:20 82.1 % 13.934 104.913 41.595 1.42 0
12-10-2012 09:10 82.1 % 13.813 83.057 15.826 1.399 0
12-10-2012 09:00 81.7 % 13.74 74.698 31.154 2.379 0
12-10-2012 08:50 82.5 % 13.631 71.829 56.796 1.14 0

I dati sono presentati in modo automatico a scopo informativo. In seguito a verifica i dati possono subire modifiche o essere invalidati e non riportati negli archivi definitivi.